Main page
METAR-TAF:

METAR-TAF

Airports :

RAF Holbeach

Holbeach, England

latitude: 52-52N, longitude: 000-09E, elevation: 3 m

Current weather observation

The report was made 8 hours and 27 minutes ago, at 10:50 UTC
Wind 21 kt from the South
Temperature 4°C
Humidity 93%
Pressure 1006 hPa
Visibility 10 km or more
Scattered clouds at a height of 3000 ft
Broken clouds at a height of 9000 ft
light rain

METAR: EGYH 281050Z 17021KT 9999 -RA SCT030 BKN090 04/03 Q1006 RMK BLU

Time: 19:17 (19:17 UTC)


TAF: missing

Weather observations and forecasts of more than 4000 airports (METAR and TAF reports).

The available stations are represented by yellow and red dots on the map.

Hover mouse over dot to see the name of the station.

Then click to see weather observations and forecasts.

To change the map : click on the green buttons with a black cross to zoom in, on the green button with a dash to zoom out, or on the green arrows for adjacent maps.


METAR-TAF: